createdAt,value
2023-02-12T00:00:39.793Z,27.00
2023-02-12T00:01:29.866Z,24.35
2023-02-12T00:02:17.997Z,23.80
2023-02-12T00:03:05.358Z,25.42
2023-02-12T00:03:52.805Z,21.98
2023-02-12T00:04:39.936Z,22.90
2023-02-12T00:05:26.951Z,23.67
2023-02-12T00:06:16.123Z,23.33
2023-02-12T00:07:03.555Z,24.87
2023-02-12T00:07:50.788Z,25.67
2023-02-12T00:08:39.144Z,24.10
2023-02-12T00:09:26.196Z,23.15
2023-02-12T00:10:13.638Z,26.50
2023-02-12T00:11:00.595Z,24.20
2023-02-12T00:11:48.059Z,23.27
2023-02-12T00:12:35.309Z,23.83
2023-02-12T00:13:22.583Z,21.42
2023-02-12T00:14:09.934Z,26.48
2023-02-12T00:14:57.023Z,25.05
2023-02-12T00:15:44.463Z,23.75
2023-02-12T00:16:31.617Z,24.58
2023-02-12T00:17:18.746Z,26.20
2023-02-12T00:18:05.809Z,24.17
2023-02-12T00:18:54.144Z,23.80
2023-02-12T00:19:41.318Z,23.33
2023-02-12T00:20:28.310Z,24.20
2023-02-12T00:21:15.410Z,23.98
2023-02-12T00:22:02.351Z,23.45
2023-02-12T00:22:49.357Z,22.50
2023-02-12T00:23:37.147Z,21.17
2023-02-12T00:24:24.175Z,24.42
2023-02-12T00:25:11.550Z,25.80
2023-02-12T00:25:58.676Z,20.88
2023-02-12T00:26:45.868Z,23.87
2023-02-12T00:27:36.575Z,26.12
2023-02-12T00:29:11.168Z,23.45
2023-02-12T00:29:58.202Z,24.35
2023-02-12T00:30:45.672Z,25.40
2023-02-12T00:31:32.851Z,21.95
2023-02-12T00:32:20.378Z,24.55
2023-02-12T00:33:07.616Z,24.10
2023-02-12T00:33:54.670Z,26.35
2023-02-12T00:34:41.677Z,22.90
2023-02-12T00:35:28.724Z,23.23
2023-02-12T00:36:20.389Z,26.00
2023-02-12T00:37:07.587Z,23.70
2023-02-12T00:37:54.678Z,24.83
2023-02-12T00:38:41.760Z,25.35
2023-02-12T00:39:29.194Z,24.98
2023-02-12T00:40:16.433Z,22.23
2023-02-12T00:41:03.616Z,23.87
2023-02-12T00:41:50.774Z,23.80
2023-02-12T00:42:37.800Z,23.42
2023-02-12T00:43:24.852Z,23.30
2023-02-12T00:44:12.093Z,23.45
2023-02-12T00:44:59.140Z,24.60
2023-02-12T00:45:46.806Z,22.83
2023-02-12T00:46:34.081Z,25.23
2023-02-12T00:47:21.179Z,23.35
2023-02-12T00:48:08.293Z,22.33
2023-02-12T00:48:55.418Z,24.08
2023-02-12T00:49:42.416Z,24.17
2023-02-12T00:50:31.914Z,23.62
2023-02-12T00:51:19.179Z,22.98
2023-02-12T00:52:06.291Z,23.35
2023-02-12T00:52:53.552Z,24.52
2023-02-12T00:53:40.851Z,24.58
2023-02-12T00:54:28.906Z,22.30
2023-02-12T00:55:16.005Z,24.10
2023-02-12T00:56:03.070Z,24.33
2023-02-12T00:56:50.700Z,25.90
2023-02-12T00:57:37.785Z,26.45
2023-02-12T00:58:25.962Z,23.25
2023-02-12T00:59:13.009Z,23.70
2023-02-12T01:00:00.172Z,22.83
2023-02-12T01:00:47.581Z,24.80
2023-02-12T01:01:34.742Z,23.45
2023-02-12T01:02:21.998Z,23.15
2023-02-12T01:03:09.239Z,26.15
2023-02-12T01:03:56.438Z,22.42
2023-02-12T01:04:43.620Z,25.25
2023-02-12T01:05:31.272Z,21.95
2023-02-12T01:06:18.375Z,24.05
2023-02-12T01:07:05.398Z,24.65
2023-02-12T01:07:54.144Z,23.48
2023-02-12T01:08:41.305Z,23.20
2023-02-12T01:09:28.299Z,24.17
2023-02-12T01:10:15.477Z,22.08
2023-02-12T01:11:04.454Z,23.77
2023-02-12T01:11:54.139Z,25.23
2023-02-12T01:12:41.157Z,25.48
2023-02-12T01:13:28.717Z,24.42
2023-02-12T01:14:18.832Z,24.52
2023-02-12T01:15:06.260Z,23.25
2023-02-12T01:16:08.742Z,22.77
2023-02-12T01:16:56.211Z,24.12
2023-02-12T01:17:43.249Z,23.27
2023-02-12T01:18:30.465Z,27.00
2023-02-12T01:19:17.631Z,24.20
2023-02-12T01:20:07.429Z,22.85
2023-02-12T01:20:54.384Z,23.98
2023-02-12T01:21:41.515Z,22.23
2023-02-12T01:22:28.517Z,22.45
2023-02-12T01:23:15.618Z,25.67
2023-02-12T01:24:03.095Z,24.05
2023-02-12T01:24:50.048Z,26.08
2023-02-12T01:25:39.039Z,24.15
2023-02-12T01:26:26.799Z,23.15
2023-02-12T01:27:13.756Z,24.60
2023-02-12T01:28:00.681Z,22.52
2023-02-12T01:29:09.063Z,21.87
2023-02-12T01:29:56.007Z,22.90
2023-02-12T01:30:43.041Z,23.50
2023-02-12T01:31:34.131Z,24.27
2023-02-12T01:32:21.469Z,23.38
2023-02-12T01:33:08.498Z,23.52
2023-02-12T01:33:57.883Z,24.25
2023-02-12T01:34:44.902Z,27.48
2023-02-12T01:35:31.935Z,25.85
2023-02-12T01:36:19.141Z,25.02
2023-02-12T01:37:06.163Z,22.48
2023-02-12T01:37:53.250Z,25.85
2023-02-12T01:38:40.508Z,23.33
2023-02-12T01:39:27.518Z,25.37
2023-02-12T01:40:16.356Z,26.17
2023-02-12T01:41:11.319Z,22.92
2023-02-12T01:41:58.264Z,23.73
2023-02-12T01:42:45.220Z,23.65
2023-02-12T01:43:32.341Z,24.05
2023-02-12T01:44:24.634Z,22.00
2023-02-12T01:45:14.435Z,23.92
2023-02-12T01:46:02.342Z,26.40
2023-02-12T01:46:58.577Z,25.77
2023-02-12T01:47:46.020Z,26.73
2023-02-12T01:48:43.161Z,22.95
2023-02-12T01:49:36.102Z,24.60
2023-02-12T01:50:23.415Z,22.23
2023-02-12T01:51:13.545Z,24.83
2023-02-12T01:52:07.533Z,25.55
2023-02-12T01:52:57.819Z,24.23
2023-02-12T01:53:48.865Z,22.27
2023-02-12T01:54:36.347Z,26.23
2023-02-12T01:55:23.337Z,23.62
2023-02-12T01:56:10.498Z,25.83
2023-02-12T01:56:57.744Z,24.83
2023-02-12T01:57:46.258Z,24.20
2023-02-12T01:58:39.213Z,23.85
2023-02-12T01:59:26.398Z,23.38
2023-02-12T02:00:22.750Z,25.23
2023-02-12T02:01:14.150Z,24.40
2023-02-12T02:02:01.639Z,23.90
2023-02-12T02:02:55.909Z,22.92
2023-02-12T02:03:45.317Z,22.48
2023-02-12T02:04:37.414Z,22.77
2023-02-12T02:05:31.954Z,25.88
2023-02-12T02:06:28.752Z,24.70
2023-02-12T02:07:15.824Z,24.60
2023-02-12T02:08:02.842Z,23.77
2023-02-12T02:08:50.694Z,24.58
2023-02-12T02:09:38.707Z,21.90
2023-02-12T02:10:25.846Z,25.12
2023-02-12T02:11:31.359Z,25.42
2023-02-12T02:12:36.908Z,24.05
2023-02-12T02:13:42.426Z,24.15
2023-02-12T02:14:35.551Z,23.58
2023-02-12T02:15:22.560Z,25.05
2023-02-12T02:16:21.707Z,24.10
2023-02-12T02:17:15.494Z,25.98
2023-02-12T02:18:12.851Z,23.52
2023-02-12T02:19:03.751Z,23.62
2023-02-12T02:20:25.789Z,22.92
2023-02-12T02:21:40.830Z,26.52
2023-02-12T02:22:32.216Z,24.00
2023-02-12T02:23:54.365Z,25.23
2023-02-12T02:24:58.835Z,24.65
2023-02-12T02:26:08.978Z,25.55
2023-02-12T02:27:07.789Z,24.95
2023-02-12T02:28:29.447Z,24.23
2023-02-12T02:29:47.553Z,24.27
2023-02-12T02:31:05.598Z,22.55
2023-02-12T02:32:14.298Z,23.27
2023-02-12T02:33:11.719Z,22.90
2023-02-12T02:34:12.836Z,26.60
2023-02-12T02:35:24.411Z,23.02
2023-02-12T02:36:35.990Z,25.88
2023-02-12T02:37:35.022Z,21.40
2023-02-12T02:38:32.286Z,22.65
2023-02-12T02:39:39.294Z,24.95
2023-02-12T02:40:32.764Z,24.73
2023-02-12T02:41:38.553Z,26.08
2023-02-12T02:42:37.659Z,21.12
2023-02-12T02:43:30.436Z,22.98
2023-02-12T02:44:27.197Z,24.00
2023-02-12T02:45:18.975Z,25.70
2023-02-12T02:46:10.341Z,22.95
2023-02-12T02:46:59.330Z,22.98
2023-02-12T02:47:53.509Z,22.23
2023-02-12T02:48:45.902Z,22.62
2023-02-12T02:49:37.996Z,22.87
2023-02-12T02:50:26.574Z,25.08
2023-02-12T02:51:20.473Z,23.75
2023-02-12T02:52:11.854Z,24.60
2023-02-12T02:53:15.248Z,23.80
2023-02-12T02:54:12.578Z,22.42
2023-02-12T02:55:04.630Z,23.48
2023-02-12T02:55:55.168Z,23.17
2023-02-12T02:56:45.055Z,23.48
2023-02-12T02:57:53.373Z,22.00
2023-02-12T02:58:44.022Z,23.87
2023-02-12T03:00:27.136Z,24.67
2023-02-12T03:01:26.723Z,22.20
2023-02-12T03:02:29.710Z,23.12
2023-02-12T03:03:25.530Z,24.30
2023-02-12T03:04:18.027Z,21.60
2023-02-12T03:05:10.628Z,21.85
2023-02-12T03:06:04.352Z,23.52
2023-02-12T03:06:55.537Z,23.00
2023-02-12T03:07:46.963Z,24.50
2023-02-12T03:08:40.949Z,24.10
2023-02-12T03:09:52.896Z,22.10
2023-02-12T03:10:46.469Z,25.20
2023-02-12T03:11:34.393Z,23.87
2023-02-12T03:12:29.360Z,26.83
2023-02-12T03:13:23.560Z,22.85
2023-02-12T03:14:13.414Z,24.00
2023-02-12T03:15:12.555Z,15.75
2023-02-12T03:16:11.807Z,22.55
2023-02-12T03:17:13.193Z,22.67
2023-02-12T03:18:01.969Z,21.77
2023-02-12T03:18:59.236Z,22.45
2023-02-12T03:19:57.383Z,23.75
2023-02-12T03:20:51.810Z,23.83
2023-02-12T03:21:46.026Z,24.73
2023-02-12T03:22:37.022Z,24.10
2023-02-12T03:23:27.224Z,24.48
2023-02-12T03:24:24.151Z,24.02
2023-02-12T03:25:15.994Z,24.30
2023-02-12T03:26:10.748Z,21.98
2023-02-12T03:27:33.480Z,22.67
2023-02-12T03:28:28.650Z,25.23
2023-02-12T03:29:17.561Z,22.23
2023-02-12T03:30:05.178Z,22.15
2023-02-12T03:31:06.951Z,23.70
2023-02-12T03:32:30.823Z,26.05
2023-02-12T03:33:23.277Z,21.20
2023-02-12T03:34:39.268Z,25.25
2023-02-12T03:35:33.187Z,22.80
2023-02-12T03:36:34.892Z,25.75
2023-02-12T03:37:27.874Z,23.62
2023-02-12T03:38:27.294Z,22.30
2023-02-12T03:39:31.540Z,24.55
2023-02-12T03:40:33.650Z,24.52
2023-02-12T03:41:36.046Z,22.65
2023-02-12T03:42:53.602Z,24.35
2023-02-12T03:44:00.736Z,22.65
2023-02-12T03:44:57.708Z,23.90
2023-02-12T03:45:47.821Z,22.75
2023-02-12T03:46:43.154Z,21.75
2023-02-12T03:48:00.906Z,23.87
2023-02-12T03:48:51.008Z,22.55
2023-02-12T03:50:03.664Z,22.98
2023-02-12T03:51:04.875Z,23.23
2023-02-12T03:51:56.366Z,20.90
2023-02-12T03:52:43.948Z,21.73
2023-02-12T03:53:31.750Z,22.20
2023-02-12T03:54:20.578Z,21.35
2023-02-12T03:55:08.543Z,24.05
2023-02-12T03:56:01.148Z,24.25
2023-02-12T03:57:00.262Z,24.05
2023-02-12T03:57:51.712Z,31.02
2023-02-12T03:58:39.414Z,24.02
2023-02-12T03:59:27.090Z,21.27
2023-02-12T04:00:19.375Z,22.87
2023-02-12T04:01:06.505Z,22.67
2023-02-12T04:01:55.263Z,23.90
2023-02-12T04:02:43.462Z,24.90
2023-02-12T04:03:32.088Z,21.27
2023-02-12T04:04:19.475Z,22.50
2023-02-12T04:05:07.672Z,24.10
2023-02-12T04:05:55.003Z,25.02
2023-02-12T04:06:42.618Z,24.85
2023-02-12T04:07:29.698Z,25.10
2023-02-12T04:08:16.690Z,23.17
2023-02-12T04:09:09.210Z,23.15
2023-02-12T04:09:57.726Z,24.87
2023-02-12T04:10:52.425Z,22.27
2023-02-12T04:12:15.020Z,24.20
2023-02-12T04:13:17.627Z,22.83
2023-02-12T04:14:10.602Z,23.35
2023-02-12T04:15:29.962Z,22.30
2023-02-12T04:16:19.767Z,21.52
2023-02-12T04:17:14.872Z,22.90
2023-02-12T04:18:10.694Z,20.73
2023-02-12T04:18:57.902Z,20.45
2023-02-12T04:20:06.108Z,23.60
2023-02-12T04:21:24.232Z,21.60
2023-02-12T04:22:30.383Z,22.85
2023-02-12T04:23:44.254Z,23.20
2023-02-12T04:24:40.254Z,21.52
2023-02-12T04:26:04.808Z,22.15
2023-02-12T04:27:17.166Z,21.08
2023-02-12T04:28:44.578Z,21.05
2023-02-12T04:29:52.550Z,22.62
2023-02-12T04:30:46.126Z,23.00
2023-02-12T04:31:56.888Z,22.55
2023-02-12T04:32:49.530Z,24.17
2023-02-12T04:33:43.022Z,21.65
2023-02-12T04:34:45.431Z,22.77
2023-02-12T04:35:47.248Z,24.00
2023-02-12T04:36:37.798Z,23.33
2023-02-12T04:37:27.001Z,23.90
2023-02-12T04:38:23.568Z,22.45
2023-02-12T04:39:15.625Z,24.42
2023-02-12T04:40:05.632Z,21.58
2023-02-12T04:40:52.708Z,24.42
2023-02-12T04:41:40.035Z,22.02
2023-02-12T04:42:27.211Z,21.33
2023-02-12T04:43:14.258Z,23.10
2023-02-12T04:44:24.120Z,22.15
2023-02-12T04:45:12.541Z,20.35
2023-02-12T04:45:59.541Z,21.85
2023-02-12T04:46:46.540Z,22.37
2023-02-12T04:47:33.596Z,22.05
2023-02-12T04:48:20.587Z,22.80
2023-02-12T04:49:09.596Z,22.60
2023-02-12T04:49:56.584Z,22.77
2023-02-12T04:50:44.458Z,21.77
2023-02-12T04:51:31.546Z,25.60
2023-02-12T04:52:18.504Z,25.77
2023-02-12T04:53:11.555Z,23.52
2023-02-12T04:53:58.572Z,21.05
2023-02-12T04:54:45.593Z,24.25
2023-02-12T04:55:32.657Z,25.17
2023-02-12T04:56:19.675Z,23.08
2023-02-12T04:57:06.706Z,24.37
2023-02-12T04:57:53.806Z,24.30
2023-02-12T04:58:41.905Z,22.30
2023-02-12T04:59:28.985Z,22.73
2023-02-12T05:00:16.549Z,21.40
2023-02-12T05:01:06.905Z,22.95
2023-02-12T05:01:53.900Z,22.67
2023-02-12T05:02:41.244Z,20.90
2023-02-12T05:03:28.302Z,23.15
2023-02-12T05:04:17.061Z,24.27
2023-02-12T05:05:05.015Z,21.42
2023-02-12T05:05:55.181Z,23.15
2023-02-12T05:06:43.583Z,23.67
2023-02-12T05:07:30.686Z,22.40
2023-02-12T05:08:17.652Z,22.17
2023-02-12T05:09:05.756Z,23.55
2023-02-12T05:09:52.894Z,25.10
2023-02-12T05:10:39.830Z,24.23
2023-02-12T05:11:26.866Z,22.70
2023-02-12T05:12:13.901Z,24.42
2023-02-12T05:13:00.970Z,22.58
2023-02-12T05:13:51.870Z,24.30
2023-02-12T05:14:38.900Z,21.67
2023-02-12T05:15:25.921Z,22.60
2023-02-12T05:16:13.044Z,22.52
2023-02-12T05:17:00.171Z,21.92
2023-02-12T05:17:47.267Z,23.02
2023-02-12T05:18:35.317Z,22.33
2023-02-12T05:19:22.387Z,25.27
2023-02-12T05:20:10.553Z,24.23
2023-02-12T05:21:01.803Z,25.70
2023-02-12T05:21:51.812Z,22.60
2023-02-12T05:22:39.007Z,22.83
2023-02-12T05:23:32.554Z,21.37
2023-02-12T05:24:19.560Z,23.58
2023-02-12T05:25:06.757Z,21.50
2023-02-12T05:25:54.155Z,23.17
2023-02-12T05:26:41.517Z,22.42
2023-02-12T05:27:28.528Z,22.42
2023-02-12T05:28:15.549Z,23.00
2023-02-12T05:29:03.801Z,22.73
2023-02-12T05:29:50.925Z,24.63
2023-02-12T05:30:38.486Z,23.02
2023-02-12T05:31:25.776Z,20.42
2023-02-12T05:32:12.910Z,21.23
2023-02-12T05:32:59.918Z,22.48
2023-02-12T05:33:48.022Z,21.17
2023-02-12T05:34:35.510Z,20.77
2023-02-12T05:35:22.497Z,22.02
2023-02-12T05:36:15.056Z,22.95
2023-02-12T05:37:02.237Z,23.95
2023-02-12T05:37:49.304Z,22.13
2023-02-12T05:38:36.340Z,23.83
2023-02-12T05:39:23.336Z,22.48
2023-02-12T05:40:10.947Z,22.80
2023-02-12T05:41:18.513Z,21.27
2023-02-12T05:42:05.660Z,22.15
2023-02-12T05:42:52.674Z,24.90
2023-02-12T05:43:39.771Z,21.15
2023-02-12T05:44:26.815Z,22.40
2023-02-12T05:45:16.176Z,21.80
2023-02-12T05:46:04.567Z,22.67
2023-02-12T05:46:52.107Z,20.52
2023-02-12T05:47:39.191Z,22.90
2023-02-12T05:48:26.230Z,24.20
2023-02-12T05:49:13.216Z,22.08
2023-02-12T05:50:00.175Z,24.45
2023-02-12T05:50:47.108Z,23.33
2023-02-12T05:51:34.107Z,24.37
2023-02-12T05:52:21.153Z,24.17
2023-02-12T05:53:08.417Z,24.60
2023-02-12T05:54:00.594Z,23.17
2023-02-12T05:54:50.608Z,24.85
2023-02-12T05:55:38.875Z,22.77
2023-02-12T05:56:28.817Z,22.25
2023-02-12T05:57:15.756Z,23.00
2023-02-12T05:58:02.733Z,23.55
2023-02-12T05:58:54.360Z,23.67
2023-02-12T05:59:41.390Z,23.45
2023-02-12T06:00:28.473Z,22.80
2023-02-12T06:01:30.853Z,23.62
2023-02-12T06:02:17.798Z,23.98
2023-02-12T06:03:04.785Z,22.80
2023-02-12T06:03:55.120Z,24.87
2023-02-12T06:04:42.190Z,22.65
2023-02-12T06:05:29.186Z,23.08
2023-02-12T06:06:16.349Z,23.75
2023-02-12T06:07:03.301Z,23.80
2023-02-12T06:07:51.873Z,23.98
2023-02-12T06:08:39.424Z,22.27
2023-02-12T06:09:26.657Z,23.85
2023-02-12T06:10:13.586Z,22.75
2023-02-12T06:11:02.781Z,24.48
2023-02-12T06:11:49.814Z,24.75
2023-02-12T06:12:36.794Z,23.60
2023-02-12T06:13:23.771Z,24.83
2023-02-12T06:14:14.072Z,24.87
2023-02-12T06:15:01.183Z,24.40
2023-02-12T06:15:48.215Z,22.85
2023-02-12T06:16:36.212Z,22.33
2023-02-12T06:17:23.228Z,25.98
2023-02-12T06:18:10.257Z,25.12
2023-02-12T06:18:57.588Z,25.20
2023-02-12T06:19:44.623Z,25.17
2023-02-12T06:20:31.663Z,24.73
2023-02-12T06:21:21.181Z,23.90
2023-02-12T06:22:08.173Z,24.23
2023-02-12T06:22:55.194Z,24.42
2023-02-12T06:23:42.257Z,23.25
2023-02-12T06:24:29.386Z,24.48
2023-02-12T06:25:16.515Z,26.62
2023-02-12T06:26:03.531Z,25.12
2023-02-12T06:26:54.276Z,25.95
2023-02-12T06:27:41.398Z,22.80
2023-02-12T06:28:28.444Z,25.50
2023-02-12T06:29:18.489Z,23.87
2023-02-12T06:30:10.553Z,25.30
2023-02-12T06:30:57.804Z,24.70
2023-02-12T06:31:45.174Z,25.42
2023-02-12T06:32:32.219Z,27.65
2023-02-12T06:33:19.308Z,28.23
2023-02-12T06:34:09.380Z,27.08
2023-02-12T06:34:56.554Z,27.85
2023-02-12T06:35:43.555Z,28.73
2023-02-12T06:36:30.602Z,29.00
2023-02-12T06:37:17.663Z,29.58
2023-02-12T06:38:04.940Z,27.73
2023-02-12T06:38:54.986Z,30.55
2023-02-12T06:39:42.019Z,22.13
2023-02-12T06:40:29.228Z,30.70
2023-02-12T06:41:16.345Z,26.80
2023-02-12T06:42:03.395Z,24.80
2023-02-12T06:42:52.658Z,27.20
2023-02-12T06:43:39.666Z,26.98
2023-02-12T06:44:26.657Z,26.55
2023-02-12T06:45:13.670Z,25.50
2023-02-12T06:46:02.053Z,23.67
2023-02-12T06:46:49.174Z,26.70
2023-02-12T06:47:36.236Z,25.50
2023-02-12T06:48:23.219Z,23.58
2023-02-12T06:49:12.880Z,24.77
2023-02-12T06:49:59.981Z,24.77
2023-02-12T06:50:46.979Z,24.80
2023-02-12T06:51:34.023Z,26.55
2023-02-12T06:52:21.861Z,24.70
2023-02-12T06:53:08.962Z,23.35
2023-02-12T06:53:56.607Z,25.10
2023-02-12T06:54:43.625Z,24.63
2023-02-12T06:55:30.662Z,21.45
2023-02-12T06:56:18.710Z,23.90
2023-02-12T06:57:05.998Z,23.08
2023-02-12T06:57:53.152Z,22.13
2023-02-12T06:58:43.738Z,27.85
2023-02-12T06:59:30.875Z,23.15
2023-02-12T07:00:18.561Z,24.60
2023-02-12T07:01:13.969Z,25.20
2023-02-12T07:02:01.070Z,24.48
2023-02-12T07:02:54.035Z,23.17
2023-02-12T07:03:41.920Z,22.65
2023-02-12T07:04:28.927Z,22.87
2023-02-12T07:05:15.867Z,22.87
2023-02-12T07:06:04.316Z,24.30
2023-02-12T07:06:53.344Z,23.60
2023-02-12T07:07:40.353Z,23.75
2023-02-12T07:08:27.341Z,23.70
2023-02-12T07:09:14.350Z,24.52
2023-02-12T07:10:01.425Z,22.40
2023-02-12T07:10:52.500Z,22.98
2023-02-12T07:11:39.620Z,22.65
2023-02-12T07:12:26.586Z,22.50
2023-02-12T07:13:13.548Z,22.27
2023-02-12T07:14:00.593Z,23.85
2023-02-12T07:14:51.514Z,20.55
2023-02-12T07:15:41.460Z,23.83
2023-02-12T07:16:28.843Z,23.73
2023-02-12T07:17:15.886Z,23.92
2023-02-12T07:18:02.966Z,25.00
2023-02-12T07:18:50.226Z,25.17
2023-02-12T07:19:37.472Z,26.23
2023-02-12T07:20:24.878Z,23.67
2023-02-12T07:21:13.623Z,27.02
2023-02-12T07:22:00.613Z,24.58
2023-02-12T07:22:47.635Z,26.05
2023-02-12T07:23:35.233Z,25.85
2023-02-12T07:24:22.339Z,23.40
2023-02-12T07:25:09.553Z,24.90
2023-02-12T07:25:58.047Z,23.12
2023-02-12T07:26:45.461Z,24.85
2023-02-12T07:27:32.558Z,24.60
2023-02-12T07:28:19.641Z,24.08
2023-02-12T07:29:07.428Z,23.55
2023-02-12T07:29:54.434Z,25.25
2023-02-12T07:30:42.749Z,23.45
2023-02-12T07:31:30.079Z,22.25
2023-02-12T07:32:17.150Z,24.60
2023-02-12T07:33:04.343Z,23.77
2023-02-12T07:33:55.907Z,22.27
2023-02-12T07:34:44.206Z,22.48
2023-02-12T07:35:31.618Z,26.20
2023-02-12T07:36:20.301Z,24.12
2023-02-12T07:37:08.653Z,24.40
2023-02-12T07:37:55.870Z,22.87
2023-02-12T07:38:43.523Z,24.05
2023-02-12T07:39:30.917Z,24.73
2023-02-12T07:40:18.385Z,26.27
2023-02-12T07:41:23.412Z,25.15
2023-02-12T07:42:10.715Z,25.12
2023-02-12T07:43:01.316Z,23.50
2023-02-12T07:44:36.621Z,21.48
2023-02-12T07:45:24.427Z,23.92
2023-02-12T07:46:17.473Z,23.23
2023-02-12T07:47:05.786Z,23.73
2023-02-12T07:47:52.896Z,24.08
2023-02-12T07:48:40.453Z,21.27
2023-02-12T07:49:27.551Z,23.85
2023-02-12T07:50:14.886Z,23.87
2023-02-12T07:51:09.659Z,24.20
2023-02-12T07:51:57.117Z,23.40
2023-02-12T07:52:44.281Z,21.73
2023-02-12T07:53:31.332Z,21.30
2023-02-12T07:54:18.613Z,23.75
2023-02-12T07:55:06.677Z,20.23
2023-02-12T07:55:54.195Z,21.10
2023-02-12T07:56:42.900Z,21.75
2023-02-12T07:57:29.994Z,23.35
2023-02-12T07:58:17.225Z,22.23
2023-02-12T07:59:06.378Z,23.23
2023-02-12T07:59:53.406Z,22.37
2023-02-12T08:00:43.430Z,21.02
2023-02-12T08:01:38.399Z,20.58
2023-02-12T08:02:28.888Z,22.62
2023-02-12T08:03:16.282Z,22.73
2023-02-12T08:04:06.391Z,20.20
2023-02-12T08:04:58.568Z,22.75
2023-02-12T08:05:46.012Z,21.00
2023-02-12T08:06:35.635Z,21.12
2023-02-12T08:07:22.662Z,21.92
2023-02-12T08:08:09.701Z,22.50
2023-02-12T08:08:59.446Z,21.92
2023-02-12T08:09:46.380Z,22.63
2023-02-12T08:10:33.578Z,20.08
2023-02-12T08:11:20.919Z,21.23
2023-02-12T08:12:08.164Z,22.90
2023-02-12T08:12:55.249Z,21.25
2023-02-12T08:13:42.449Z,19.42
2023-02-12T08:14:29.656Z,21.50
2023-02-12T08:15:16.774Z,21.70
2023-02-12T08:16:07.103Z,22.75
2023-02-12T08:16:54.219Z,23.92
2023-02-12T08:17:43.809Z,23.12
2023-02-12T08:18:32.078Z,24.33
2023-02-12T08:19:22.714Z,22.17
2023-02-12T08:20:13.245Z,21.62
2023-02-12T08:21:05.239Z,20.23
2023-02-12T08:21:53.498Z,23.25
2023-02-12T08:22:40.450Z,24.63
2023-02-12T08:23:27.644Z,27.15
2023-02-12T08:24:14.674Z,25.90
2023-02-12T08:25:01.963Z,24.67
2023-02-12T08:26:00.724Z,28.42
2023-02-12T08:26:59.742Z,31.10
2023-02-12T08:27:48.336Z,23.95
2023-02-12T08:28:42.614Z,21.50
2023-02-12T08:29:31.427Z,22.80
2023-02-12T08:30:26.336Z,22.05
2023-02-12T08:31:22.826Z,20.77
2023-02-12T08:32:14.788Z,19.12
2023-02-12T08:33:03.412Z,20.90
2023-02-12T08:33:59.198Z,20.80
2023-02-12T08:34:51.665Z,21.52
2023-02-12T08:35:54.654Z,21.12
2023-02-12T08:36:47.751Z,21.90
2023-02-12T08:37:41.787Z,23.40
2023-02-12T08:38:32.996Z,23.20
2023-02-12T08:39:22.412Z,19.05
2023-02-12T08:40:19.950Z,19.52
2023-02-12T08:41:15.412Z,22.23
2023-02-12T08:42:07.426Z,22.02
2023-02-12T08:42:57.208Z,21.33
2023-02-12T08:43:51.130Z,22.20
2023-02-12T08:44:50.347Z,19.37
2023-02-12T08:45:45.868Z,20.60
2023-02-12T08:46:37.308Z,20.55
2023-02-12T08:47:25.474Z,21.92
2023-02-12T08:48:15.676Z,18.70
2023-02-12T08:49:06.003Z,22.33
2023-02-12T08:49:57.342Z,20.05
2023-02-12T08:50:52.031Z,20.23
2023-02-12T08:51:47.442Z,21.08
2023-02-12T08:52:37.351Z,22.50
2023-02-12T08:53:24.766Z,23.08
2023-02-12T08:54:14.818Z,20.92
2023-02-12T08:55:02.311Z,23.30
2023-02-12T08:55:50.747Z,19.58
2023-02-12T08:56:38.228Z,18.85
2023-02-12T08:57:25.318Z,19.17
2023-02-12T08:58:12.381Z,17.85
2023-02-12T08:59:00.150Z,17.95
2023-02-12T08:59:49.397Z,19.35
2023-02-12T09:00:38.859Z,20.70
2023-02-12T09:01:29.040Z,18.37
2023-02-12T09:02:16.147Z,19.58
2023-02-12T09:03:03.388Z,19.87
2023-02-12T09:03:50.969Z,17.83
2023-02-12T09:04:38.123Z,16.55
2023-02-12T09:05:25.365Z,16.55
2023-02-12T09:06:12.792Z,18.67
2023-02-12T09:07:00.086Z,19.77
2023-02-12T09:07:47.429Z,16.52
2023-02-12T09:08:34.469Z,18.20
2023-02-12T09:09:42.583Z,17.30
2023-02-12T09:10:29.677Z,17.20
2023-02-12T09:11:39.367Z,16.48
2023-02-12T09:12:26.913Z,15.80
2023-02-12T09:13:15.504Z,15.05
2023-02-12T09:14:08.666Z,16.65
2023-02-12T09:14:55.771Z,14.87
2023-02-12T09:15:45.149Z,15.25
2023-02-12T09:16:35.622Z,15.13
2023-02-12T09:17:27.683Z,15.35
2023-02-12T09:18:15.161Z,15.13
2023-02-12T09:19:02.388Z,15.27
2023-02-12T09:19:49.518Z,14.98
2023-02-12T09:20:40.230Z,14.48
2023-02-12T09:22:14.087Z,13.15
2023-02-12T09:23:01.211Z,13.43
2023-02-12T09:23:49.053Z,13.65
2023-02-12T09:24:37.944Z,15.45
2023-02-12T09:25:25.388Z,14.68
2023-02-12T09:26:15.548Z,17.75
2023-02-12T09:27:02.639Z,13.48
2023-02-12T09:27:49.689Z,13.95
2023-02-12T09:28:37.201Z,13.40
2023-02-12T09:29:24.441Z,12.65
2023-02-12T09:30:12.088Z,12.73
2023-02-12T09:31:45.693Z,11.10
2023-02-12T09:32:32.818Z,13.52
2023-02-12T09:33:19.837Z,13.27
2023-02-12T09:34:07.829Z,11.70
2023-02-12T09:34:54.967Z,11.95
2023-02-12T09:35:42.029Z,11.98
2023-02-12T09:36:29.783Z,11.55
2023-02-12T09:37:16.792Z,11.63
2023-02-12T09:38:04.644Z,12.00
2023-02-12T09:38:54.705Z,11.48
2023-02-12T09:39:41.797Z,11.65
2023-02-12T09:40:36.738Z,11.57
2023-02-12T09:41:38.592Z,11.65
2023-02-12T09:42:32.634Z,11.68
2023-02-12T09:43:31.673Z,9.85
2023-02-12T09:45:03.212Z,10.82
2023-02-12T09:46:04.189Z,10.38
2023-02-12T09:47:00.987Z,10.13
2023-02-12T09:47:56.100Z,10.23
2023-02-12T09:48:57.369Z,9.75
2023-02-12T09:50:03.240Z,11.15
2023-02-12T09:50:55.451Z,12.70
2023-02-12T09:51:44.974Z,13.20
2023-02-12T09:52:32.177Z,10.75
2023-02-12T09:53:22.517Z,10.07
2023-02-12T09:54:17.789Z,10.98
2023-02-12T09:55:05.509Z,10.93
2023-02-12T09:55:55.668Z,12.25
2023-02-12T09:56:55.112Z,10.95
2023-02-12T09:57:45.431Z,14.70
2023-02-12T09:58:53.462Z,9.95
2023-02-12T09:59:52.129Z,11.65
2023-02-12T10:00:39.445Z,9.88
2023-02-12T10:01:29.704Z,10.32
2023-02-12T10:02:18.590Z,10.25
2023-02-12T10:03:15.329Z,11.15
2023-02-12T10:04:02.590Z,9.85
2023-02-12T10:05:00.551Z,10.13
2023-02-12T10:05:52.030Z,11.18
2023-02-12T10:06:53.131Z,11.77
2023-02-12T10:07:54.411Z,11.80
2023-02-12T10:09:07.775Z,13.23
2023-02-12T10:10:20.297Z,11.55
2023-02-12T10:11:28.984Z,12.30
2023-02-12T10:12:24.791Z,10.95
2023-02-12T10:13:20.653Z,11.93
2023-02-12T10:14:33.112Z,11.65
2023-02-12T10:15:45.707Z,9.82
2023-02-12T10:17:08.802Z,13.00
2023-02-12T10:18:18.814Z,11.40
2023-02-12T10:19:24.313Z,11.77
2023-02-12T10:20:26.232Z,10.93
2023-02-12T10:21:31.787Z,9.90
2023-02-12T10:22:32.036Z,11.45
2023-02-12T10:23:57.613Z,10.15
2023-02-12T10:25:03.306Z,12.82
2023-02-12T10:25:54.470Z,11.73
2023-02-12T10:26:47.902Z,12.32
2023-02-12T10:27:49.840Z,9.90
2023-02-12T10:28:41.523Z,8.30
2023-02-12T10:29:35.482Z,9.02
2023-02-12T10:30:32.117Z,11.50
2023-02-12T10:31:33.354Z,12.37
2023-02-12T10:32:38.112Z,10.27
2023-02-12T10:33:30.320Z,10.80
2023-02-12T10:34:26.479Z,8.93
2023-02-12T10:35:18.311Z,9.43
2023-02-12T10:36:17.447Z,8.90
2023-02-12T10:37:33.066Z,10.02
2023-02-12T10:38:23.091Z,7.95
2023-02-12T10:39:52.654Z,8.90
2023-02-12T10:40:43.714Z,9.38
2023-02-12T10:41:31.289Z,9.15
2023-02-12T10:42:41.908Z,9.40
2023-02-12T10:43:29.268Z,8.38
2023-02-12T10:44:19.030Z,7.50
2023-02-12T10:45:07.121Z,9.23
2023-02-12T10:45:54.396Z,10.32
2023-02-12T10:46:42.473Z,12.55
2023-02-12T10:47:29.448Z,10.07
2023-02-12T10:48:22.387Z,9.40
2023-02-12T10:49:13.403Z,9.95
2023-02-12T10:50:02.324Z,14.02
2023-02-12T10:50:52.620Z,8.50
2023-02-12T10:51:39.618Z,10.13
2023-02-12T10:53:01.126Z,12.80
2023-02-12T10:53:48.845Z,9.48
2023-02-12T10:54:38.980Z,9.15
2023-02-12T10:55:33.368Z,10.30
2023-02-12T10:56:24.796Z,9.88
2023-02-12T10:57:19.148Z,9.35
2023-02-12T10:58:19.296Z,7.68
2023-02-12T10:59:06.492Z,9.20
2023-02-12T10:59:57.516Z,8.65
2023-02-12T11:00:44.528Z,10.05
2023-02-12T11:01:31.598Z,8.75
2023-02-12T11:02:27.786Z,8.35
2023-02-12T11:03:15.506Z,9.43
2023-02-12T11:04:27.747Z,10.60
2023-02-12T11:05:26.411Z,9.82
2023-02-12T11:06:16.550Z,10.20
2023-02-12T11:07:06.778Z,8.80
2023-02-12T11:07:53.828Z,11.68
2023-02-12T11:08:41.605Z,10.30
2023-02-12T11:09:35.484Z,11.25